Time;durP1;ratioP1;P1;durP2;ratioP2;P2;SDS_P1;SDS_P2;PMS_P1;PMS_P2;Temp;Humidity;BMP_temperature;BMP_pressure;BME280_temperature;BME280_humidity;BME280_pressure;Samples;Min_cycle;Max_cycle;Signal;HPM_P1;HPM_P2
2022/01/13 00:01:44;;;;;;;11.17;5.10;;;;;;;;;;5049193;28;20477;-69
2022/01/13 00:04:12;;;;;;;14.37;6.13;;;;;;;;;;5048456;28;20425;-69
2022/01/13 00:06:39;;;;;;;13.30;4.90;;;;;;;;;;5049666;28;20524;-69
2022/01/13 00:09:06;;;;;;;11.37;5.90;;;;;;;;;;5051086;28;21199;-69
2022/01/13 00:11:33;;;;;;;8.63;4.77;;;;;;;;;;5069635;28;20462;-69
2022/01/13 00:24:59;;;;;;;5.17;2.73;;;;;;;;;;5067183;28;20452;-69
2022/01/13 00:27:28;;;;;;;9.10;4.63;;;;;;;;;;5068940;28;21215;-69
2022/01/13 00:29:57;;;;;;;7.80;4.07;;;;;;;;;;5069156;28;20449;-69
2022/01/13 00:32:27;;;;;;;8.67;4.43;;;;;;;;;;5051389;28;20447;-69
2022/01/13 00:34:54;;;;;;;10.63;4.67;;;;;;;;;;5069058;28;20498;-69
2022/01/13 00:37:20;;;;;;;6.77;3.47;;;;;;;;;;5068839;28;20471;-69
2022/01/13 00:39:47;;;;;;;7.77;4.27;;;;;;;;;;5068590;28;20456;-69
2022/01/13 00:42:14;;;;;;;7.77;4.17;;;;;;;;;;5049815;28;20474;-69
2022/01/13 00:44:43;;;;;;;9.73;3.90;;;;;;;;;;5048684;28;20928;-69
2022/01/13 00:47:11;;;;;;;7.53;3.93;;;;;;;;;;5048997;28;20435;-68
2022/01/13 00:49:37;;;;;;;6.53;3.53;;;;;;;;;;5048988;28;20437;-69
2022/01/13 00:52:04;;;;;;;6.73;4.17;;;;;;;;;;5047508;28;20437;-69
2022/01/13 00:54:32;;;;;;;6.20;3.60;;;;;;;;;;5048601;28;20432;-69
2022/01/13 00:56:59;;;;;;;5.13;2.53;;;;;;;;;;5030852;28;20550;-69
2022/01/13 00:59:25;;;;;;;4.07;2.40;;;;;;;;;;5048311;28;20600;-69
2022/01/13 01:01:54;;;;;;;4.43;2.00;;;;;;;;;;5031095;28;20441;-69
2022/01/13 01:40:17;;;;;;;2.73;1.70;;;;;;;;;;5052232;28;20557;-69
2022/01/13 01:42:46;;;;;;;5.80;2.37;;;;;;;;;;5052091;28;20440;-69
2022/01/13 01:45:13;;;;;;;3.23;2.20;;;;;;;;;;5052179;28;20429;-69
2022/01/13 01:47:41;;;;;;;3.47;2.23;;;;;;;;;;5018120;28;20973;-69
2022/01/13 01:50:11;;;;;;;5.77;1.30;;;;;;;;;;5034503;28;20433;-69
2022/01/13 01:52:38;;;;;;;3.83;2.40;;;;;;;;;;5050761;28;20444;-69
2022/01/13 01:55:05;;;;;;;4.07;2.47;;;;;;;;;;5052051;28;20426;-69
2022/01/13 01:57:32;;;;;;;4.10;1.63;;;;;;;;;;5050622;28;20465;-69
2022/01/13 01:59:59;;;;;;;3.00;2.20;;;;;;;;;;5034007;28;20464;-69
2022/01/13 02:02:27;;;;;;;2.20;1.20;;;;;;;;;;5051838;28;20472;-69
2022/01/13 02:04:54;;;;;;;2.63;1.73;;;;;;;;;;5051945;28;20425;-69
2022/01/13 02:07:21;;;;;;;3.20;2.07;;;;;;;;;;5065378;28;20454;-69
2022/01/13 02:09:52;;;;;;;3.03;2.00;;;;;;;;;;5071556;28;20487;-69
2022/01/13 02:12:34;;;;;;;4.67;1.70;;;;;;;;;;5071786;28;20515;-68
2022/01/13 02:17:38;;;;;;;3.50;1.73;;;;;;;;;;5053834;28;20558;-69
2022/01/13 02:20:05;;;;;;;1.37;1.07;;;;;;;;;;5054031;28;20598;-69
2022/01/13 02:22:32;;;;;;;4.37;2.20;;;;;;;;;;5052662;28;20454;-69
2022/01/13 02:24:58;;;;;;;5.83;2.73;;;;;;;;;;5053757;28;20424;-69
2022/01/13 02:27:25;;;;;;;3.97;2.30;;;;;;;;;;5071245;28;20448;-69
2022/01/13 02:29:52;;;;;;;2.60;1.77;;;;;;;;;;5053628;28;20478;-69
2022/01/13 02:32:18;;;;;;;2.50;1.60;;;;;;;;;;5071319;28;20444;-70
2022/01/13 02:34:45;;;;;;;3.90;2.10;;;;;;;;;;5037511;28;20502;-69
2022/01/13 02:37:12;;;;;;;3.40;2.47;;;;;;;;;;5054747;28;20499;-69
2022/01/13 02:39:38;;;;;;;2.67;1.20;;;;;;;;;;5073199;28;20464;-69
2022/01/13 02:42:12;;;;;;;3.37;2.20;;;;;;;;;;5071036;28;20795;-69
2022/01/13 02:45:02;;;;;;;4.03;2.53;;;;;;;;;;5053960;28;20436;-69
2022/01/13 02:47:36;;;;;;;3.30;1.83;;;;;;;;;;5053670;28;20434;-69
2022/01/13 02:50:06;;;;;;;3.43;2.17;;;;;;;;;;5071582;28;20447;-69
2022/01/13 02:52:33;;;;;;;3.73;2.13;;;;;;;;;;5071009;28;20424;-69
2022/01/13 02:54:59;;;;;;;5.40;1.70;;;;;;;;;;5069660;28;20535;-69
2022/01/13 02:57:26;;;;;;;3.83;1.90;;;;;;;;;;5052766;28;20495;-69
2022/01/13 02:59:53;;;;;;;3.90;2.10;;;;;;;;;;5053260;28;20486;-69
2022/01/13 03:02:19;;;;;;;3.13;1.87;;;;;;;;;;5071310;28;20518;-69
2022/01/13 03:04:47;;;;;;;3.67;1.73;;;;;;;;;;5070853;28;20439;-69
2022/01/13 03:07:14;;;;;;;3.93;2.30;;;;;;;;;;5070757;28;20478;-69
2022/01/13 03:09:43;;;;;;;3.60;1.70;;;;;;;;;;5052658;28;20452;-69
2022/01/13 03:12:11;;;;;;;2.93;1.40;;;;;;;;;;5048264;28;20449;-69
2022/01/13 03:14:37;;;;;;;1.17;0.90;;;;;;;;;;5049812;28;20456;-69
2022/01/13 03:17:04;;;;;;;4.33;1.50;;;;;;;;;;5050744;28;21230;-70
2022/01/13 03:19:31;;;;;;;2.97;2.13;;;;;;;;;;5050465;28;20475;-69
2022/01/13 03:21:58;;;;;;;3.27;2.00;;;;;;;;;;5049240;28;20421;-69
2022/01/13 03:24:25;;;;;;;4.40;1.97;;;;;;;;;;5046930;28;20512;-70
2022/01/13 03:26:53;;;;;;;2.43;1.50;;;;;;;;;;5054445;28;20472;-70
2022/01/13 03:29:22;;;;;;;2.50;1.57;;;;;;;;;;5052002;28;20819;-69
2022/01/13 03:31:48;;;;;;;3.50;2.00;;;;;;;;;;5068758;28;20478;-69
2022/01/13 03:34:16;;;;;;;2.90;1.53;;;;;;;;;;5069266;28;20463;-69
2022/01/13 03:36:45;;;;;;;3.77;2.37;;;;;;;;;;5051331;28;20832;-69
2022/01/13 03:39:13;;;;;;;3.23;1.90;;;;;;;;;;5051556;28;20444;-69
2022/01/13 03:41:40;;;;;;;2.33;1.37;;;;;;;;;;5069146;28;20486;-69
2022/01/13 03:44:08;;;;;;;2.27;1.57;;;;;;;;;;5068630;28;20454;-69
2022/01/13 03:46:35;;;;;;;3.33;2.20;;;;;;;;;;5070035;28;20432;-69
2022/01/13 03:49:02;;;;;;;3.97;2.13;;;;;;;;;;5052113;28;20432;-68
2022/01/13 03:51:44;;;;;;;2.27;1.67;;;;;;;;;;5069926;28;20421;-68
2022/01/13 03:54:13;;;;;;;2.77;1.60;;;;;;;;;;5070073;28;20807;-68
2022/01/13 03:56:43;;;;;;;2.20;1.50;;;;;;;;;;5051596;28;20428;-69
2022/01/13 03:59:15;;;;;;;3.17;1.90;;;;;;;;;;5070728;28;20436;-69
2022/01/13 04:01:58;;;;;;;3.00;1.97;;;;;;;;;;5069520;28;20475;-69
2022/01/13 04:04:25;;;;;;;3.17;2.00;;;;;;;;;;5051954;28;20490;-68
2022/01/13 04:07:03;;;;;;;1.90;1.30;;;;;;;;;;5051707;28;20454;-69
2022/01/13 04:09:33;;;;;;;3.03;1.93;;;;;;;;;;5034955;28;20528;-68
2022/01/13 04:12:05;;;;;;;2.23;1.80;;;;;;;;;;5069044;28;21194;-68
2022/01/13 04:14:55;;;;;;;3.23;1.80;;;;;;;;;;5069296;28;20431;-68
2022/01/13 04:17:23;;;;;;;3.90;2.30;;;;;;;;;;5050518;28;20567;-69
2022/01/13 04:19:49;;;;;;;2.83;1.90;;;;;;;;;;5049278;28;20425;-68
2022/01/13 04:22:16;;;;;;;3.67;1.57;;;;;;;;;;5015323;28;20528;-68
2022/01/13 04:24:43;;;;;;;4.13;2.10;;;;;;;;;;5014965;28;20489;-68
2022/01/13 04:27:10;;;;;;;3.63;2.13;;;;;;;;;;5048934;28;20840;-68
2022/01/13 04:29:40;;;;;;;5.53;2.30;;;;;;;;;;5049320;28;20457;-69
2022/01/13 04:32:07;;;;;;;3.07;1.63;;;;;;;;;;5063554;28;20582;-68
2022/01/13 04:34:34;;;;;;;4.63;2.30;;;;;;;;;;5051525;28;20441;-68
2022/01/13 04:37:00;;;;;;;2.97;1.50;;;;;;;;;;5051011;28;20460;-68
2022/01/13 04:39:28;;;;;;;4.33;2.40;;;;;;;;;;5050998;28;20433;-68
2022/01/13 04:41:55;;;;;;;3.50;2.37;;;;;;;;;;5068802;28;20197;-68
2022/01/13 04:44:22;;;;;;;5.40;2.90;;;;;;;;;;5069104;28;20428;-69
2022/01/13 04:46:49;;;;;;;3.97;1.93;;;;;;;;;;5068728;28;20428;-68
2022/01/13 04:49:18;;;;;;;3.53;1.77;;;;;;;;;;5067807;28;20456;-69
2022/01/13 04:51:45;;;;;;;5.30;2.80;;;;;;;;;;5068860;28;20424;-68
2022/01/13 04:54:12;;;;;;;3.97;2.60;;;;;;;;;;5050969;28;20506;-68
2022/01/13 04:56:43;;;;;;;5.63;3.03;;;;;;;;;;5068643;28;20433;-68
2022/01/13 04:59:10;;;;;;;5.60;3.33;;;;;;;;;;5051844;28;20429;-69
2022/01/13 05:01:36;;;;;;;4.80;3.07;;;;;;;;;;5068610;28;20421;-69
2022/01/13 05:04:04;;;;;;;5.60;2.40;;;;;;;;;;5054947;28;20926;-68
2022/01/13 05:06:30;;;;;;;5.27;3.40;;;;;;;;;;5048532;28;20421;-69
2022/01/13 05:08:57;;;;;;;3.43;2.00;;;;;;;;;;5048054;28;20201;-68
2022/01/13 05:11:24;;;;;;;4.10;2.33;;;;;;;;;;5031136;28;20480;-68
2022/01/13 05:13:50;;;;;;;5.10;3.13;;;;;;;;;;5030717;28;20435;-68
2022/01/13 05:16:23;;;;;;;5.30;2.87;;;;;;;;;;5030870;28;20456;-68
2022/01/13 05:19:36;;;;;;;7.77;3.53;;;;;;;;;;5047994;28;20905;-68
2022/01/13 05:24:44;;;;;;;8.70;3.27;;;;;;;;;;5002104;28;20454;-69
2022/01/13 05:27:11;;;;;;;6.97;3.80;;;;;;;;;;5045335;28;20444;-70
2022/01/13 05:29:38;;;;;;;7.43;3.53;;;;;;;;;;5068345;28;20440;-69
2022/01/13 05:32:05;;;;;;;5.63;3.67;;;;;;;;;;5068257;28;20448;-69
2022/01/13 05:34:32;;;;;;;6.70;3.53;;;;;;;;;;5049118;28;20206;-69
2022/01/13 05:37:10;;;;;;;4.33;2.70;;;;;;;;;;5062300;28;20448;-69
2022/01/13 05:39:36;;;;;;;6.17;2.87;;;;;;;;;;5044984;28;20464;-68
2022/01/13 05:42:03;;;;;;;4.13;2.57;;;;;;;;;;5067365;28;20188;-69
2022/01/13 05:44:37;;;;;;;5.10;2.47;;;;;;;;;;5059486;28;20472;-69
2022/01/13 05:47:04;;;;;;;5.83;2.43;;;;;;;;;;5032972;28;20968;-69
2022/01/13 05:49:31;;;;;;;6.50;3.00;;;;;;;;;;5052526;28;20417;-68
2022/01/13 05:51:57;;;;;;;7.50;3.27;;;;;;;;;;5049353;28;20194;-70
2022/01/13 05:54:24;;;;;;;4.57;2.43;;;;;;;;;;5062698;28;20444;-68
2022/01/13 05:56:51;;;;;;;5.00;2.60;;;;;;;;;;5056983;28;20847;-69
2022/01/13 05:59:19;;;;;;;5.50;2.77;;;;;;;;;;5029340;28;20558;-69
2022/01/13 06:01:45;;;;;;;7.77;2.17;;;;;;;;;;5062586;28;20433;-68
2022/01/13 06:04:15;;;;;;;2.73;1.93;;;;;;;;;;5066449;28;20424;-68
2022/01/13 06:06:42;;;;;;;4.00;1.73;;;;;;;;;;5066028;28;20527;-68
2022/01/13 06:09:09;;;;;;;3.27;2.10;;;;;;;;;;5064705;28;20502;-69
2022/01/13 06:11:42;;;;;;;6.40;2.83;;;;;;;;;;5057511;28;20453;-68
2022/01/13 06:14:09;;;;;;;7.00;3.30;;;;;;;;;;5030803;28;20541;-68
2022/01/13 06:16:36;;;;;;;4.90;2.80;;;;;;;;;;5057420;28;20467;-69
2022/01/13 06:19:03;;;;;;;4.13;2.70;;;;;;;;;;5033657;28;20213;-68
2022/01/13 06:21:30;;;;;;;5.67;2.57;;;;;;;;;;5069899;28;20183;-68
2022/01/13 06:23:57;;;;;;;5.03;2.87;;;;;;;;;;5071385;28;20439;-68
2022/01/13 06:26:23;;;;;;;6.67;3.40;;;;;;;;;;5071773;28;20424;-69
2022/01/13 06:28:50;;;;;;;4.60;2.43;;;;;;;;;;5053193;28;20819;-68
2022/01/13 06:31:16;;;;;;;3.97;3.10;;;;;;;;;;5071431;28;20182;-68
2022/01/13 06:33:43;;;;;;;4.40;3.27;;;;;;;;;;5071315;28;20178;-68
2022/01/13 06:36:13;;;;;;;4.63;2.67;;;;;;;;;;5071259;28;20269;-68
2022/01/13 06:38:41;;;;;;;4.80;2.80;;;;;;;;;;5071221;28;20510;-68
2022/01/13 06:41:08;;;;;;;4.73;2.20;;;;;;;;;;5071162;28;20456;-68
2022/01/13 06:43:35;;;;;;;4.80;2.67;;;;;;;;;;5071006;28;20433;-68
2022/01/13 06:46:02;;;;;;;4.13;2.60;;;;;;;;;;5070835;28;20435;-69
2022/01/13 06:48:29;;;;;;;3.83;2.43;;;;;;;;;;5071118;28;20456;-69
2022/01/13 06:50:55;;;;;;;3.73;2.23;;;;;;;;;;5052965;28;20448;-68
2022/01/13 06:53:22;;;;;;;4.07;1.70;;;;;;;;;;5071213;28;20776;-68
2022/01/13 06:55:49;;;;;;;3.50;2.10;;;;;;;;;;5070736;28;20424;-69
2022/01/13 06:58:17;;;;;;;3.67;2.17;;;;;;;;;;5070728;28;20502;-68
2022/01/13 07:00:44;;;;;;;2.07;1.23;;;;;;;;;;5070718;28;20867;-69
2022/01/13 07:03:10;;;;;;;2.67;1.53;;;;;;;;;;5070450;28;20539;-68
2022/01/13 07:05:37;;;;;;;4.07;2.20;;;;;;;;;;5070867;28;20911;-69
2022/01/13 07:08:04;;;;;;;2.87;1.80;;;;;;;;;;5070763;28;20433;-69
2022/01/13 07:10:31;;;;;;;3.93;1.90;;;;;;;;;;5036474;28;20432;-68
2022/01/13 07:12:57;;;;;;;2.80;1.60;;;;;;;;;;5052411;28;20874;-69
2022/01/13 07:15:28;;;;;;;4.37;2.37;;;;;;;;;;5053400;28;20435;-68
2022/01/13 07:17:55;;;;;;;3.00;1.80;;;;;;;;;;5070393;28;20488;-68
2022/01/13 07:20:22;;;;;;;2.83;2.10;;;;;;;;;;5070760;28;20440;-69
2022/01/13 07:22:49;;;;;;;4.83;1.93;;;;;;;;;;5052689;28;20439;-69
2022/01/13 07:25:15;;;;;;;2.80;1.60;;;;;;;;;;5070571;28;21116;-69
2022/01/13 07:27:42;;;;;;;2.93;1.60;;;;;;;;;;5052364;28;20469;-69
2022/01/13 07:30:09;;;;;;;4.40;2.00;;;;;;;;;;5070132;28;20429;-69
2022/01/13 07:32:36;;;;;;;4.60;2.07;;;;;;;;;;5052917;28;20421;-69
2022/01/13 07:35:03;;;;;;;5.37;2.37;;;;;;;;;;5035921;28;20425;-69
2022/01/13 07:37:30;;;;;;;4.90;1.40;;;;;;;;;;5070078;28;20424;-69
2022/01/13 07:39:59;;;;;;;4.57;2.70;;;;;;;;;;5069793;28;20222;-68
2022/01/13 07:42:26;;;;;;;4.00;2.40;;;;;;;;;;5051864;28;21268;-69
2022/01/13 07:44:53;;;;;;;3.23;2.07;;;;;;;;;;5052148;28;20428;-68
2022/01/13 07:47:20;;;;;;;4.93;2.87;;;;;;;;;;5070158;28;20251;-69
2022/01/13 07:49:47;;;;;;;5.67;2.60;;;;;;;;;;5069969;28;20469;-69
2022/01/13 07:52:14;;;;;;;3.27;1.90;;;;;;;;;;5052346;28;20479;-68
2022/01/13 07:54:40;;;;;;;4.77;3.30;;;;;;;;;;5069750;28;20196;-69
2022/01/13 07:57:07;;;;;;;4.20;2.13;;;;;;;;;;5069574;28;20463;-69
2022/01/13 07:59:34;;;;;;;4.23;1.97;;;;;;;;;;5069967;28;21055;-69
2022/01/13 08:02:00;;;;;;;3.83;2.10;;;;;;;;;;5052149;28;20185;-68
2022/01/13 08:04:27;;;;;;;3.60;1.73;;;;;;;;;;5053544;28;20489;-69
2022/01/13 08:06:54;;;;;;;4.73;2.50;;;;;;;;;;5070654;28;20182;-69
2022/01/13 08:09:22;;;;;;;5.27;2.73;;;;;;;;;;5051988;28;20436;-68
2022/01/13 08:11:49;;;;;;;5.97;3.00;;;;;;;;;;5051518;28;20247;-69
2022/01/13 08:14:16;;;;;;;4.10;2.50;;;;;;;;;;5069598;28;21041;-69
2022/01/13 08:16:44;;;;;;;5.60;2.90;;;;;;;;;;5067529;28;20432;-69
2022/01/13 08:21:56;;;;;;;4.40;2.53;;;;;;;;;;5054209;28;20444;-68
2022/01/13 08:24:23;;;;;;;6.97;3.37;;;;;;;;;;5051774;28;20190;-69
2022/01/13 08:26:51;;;;;;;6.77;2.77;;;;;;;;;;5068705;28;20267;-68
2022/01/13 08:29:19;;;;;;;6.10;2.90;;;;;;;;;;5069171;28;20435;-68
2022/01/13 08:31:45;;;;;;;3.47;2.50;;;;;;;;;;5034708;28;20253;-68
2022/01/13 08:34:14;;;;;;;4.17;2.30;;;;;;;;;;5068954;28;20428;-68
2022/01/13 08:36:40;;;;;;;8.00;3.47;;;;;;;;;;5069097;28;20452;-69
2022/01/13 08:39:07;;;;;;;4.90;2.07;;;;;;;;;;5068767;28;20259;-69
2022/01/13 08:41:38;;;;;;;11.30;4.63;;;;;;;;;;5029251;28;20199;-69
2022/01/13 08:44:05;;;;;;;12.53;5.00;;;;;;;;;;5027975;28;20977;-68
2022/01/13 08:46:32;;;;;;;12.63;5.00;;;;;;;;;;5028928;28;20438;-68
2022/01/13 08:48:59;;;;;;;11.30;4.07;;;;;;;;;;5029121;28;20249;-69
2022/01/13 08:51:26;;;;;;;8.17;3.30;;;;;;;;;;5029142;28;20545;-69
2022/01/13 08:53:53;;;;;;;14.40;5.43;;;;;;;;;;5028645;28;20837;-69
2022/01/13 08:56:19;;;;;;;10.57;5.20;;;;;;;;;;5029259;28;20422;-68
2022/01/13 08:58:47;;;;;;;12.87;5.33;;;;;;;;;;5028548;28;20544;-68
2022/01/13 09:01:13;;;;;;;9.20;4.33;;;;;;;;;;5028595;28;20524;-68
2022/01/13 09:03:40;;;;;;;11.63;5.23;;;;;;;;;;5028907;28;20553;-69
2022/01/13 09:06:07;;;;;;;10.67;4.60;;;;;;;;;;5028815;28;20469;-68
2022/01/13 09:08:34;;;;;;;9.90;3.77;;;;;;;;;;5028900;28;20270;-69
2022/01/13 09:11:01;;;;;;;7.77;4.27;;;;;;;;;;5027505;28;20188;-68
2022/01/13 09:13:29;;;;;;;9.37;4.90;;;;;;;;;;5028413;28;20183;-69
2022/01/13 09:16:00;;;;;;;12.37;4.33;;;;;;;;;;5028825;28;20995;-69
2022/01/13 09:21:13;;;;;;;13.90;5.53;;;;;;;;;;5027557;28;20438;-68
2022/01/13 09:23:39;;;;;;;11.57;5.70;;;;;;;;;;5028600;28;20183;-69
2022/01/13 09:26:06;;;;;;;9.17;4.40;;;;;;;;;;5027601;28;20450;-68
2022/01/13 09:28:35;;;;;;;17.40;5.70;;;;;;;;;;5028171;28;20192;-69
2022/01/13 09:31:03;;;;;;;7.43;4.17;;;;;;;;;;5028629;28;20763;-68
2022/01/13 09:33:29;;;;;;;11.67;5.43;;;;;;;;;;5027052;28;20439;-68
2022/01/13 09:35:56;;;;;;;11.97;5.57;;;;;;;;;;5028553;28;20431;-68
2022/01/13 09:38:23;;;;;;;9.67;3.87;;;;;;;;;;5028570;28;20457;-68
2022/01/13 09:40:52;;;;;;;13.47;5.37;;;;;;;;;;5055824;28;20475;-68
2022/01/13 09:43:22;;;;;;;12.90;5.37;;;;;;;;;;5068312;28;20185;-68
2022/01/13 09:45:49;;;;;;;11.53;4.37;;;;;;;;;;5050254;28;20441;-69
2022/01/13 09:48:16;;;;;;;6.67;3.60;;;;;;;;;;5050560;28;20425;-69
2022/01/13 09:50:42;;;;;;;9.83;4.00;;;;;;;;;;5050512;28;20436;-68
2022/01/13 09:53:09;;;;;;;8.70;3.93;;;;;;;;;;5068276;28;20216;-68
2022/01/13 09:55:36;;;;;;;8.50;3.53;;;;;;;;;;5070685;28;20436;-68
2022/01/13 09:58:10;;;;;;;6.70;2.63;;;;;;;;;;5072165;28;20236;-68
2022/01/13 10:00:37;;;;;;;8.60;3.20;;;;;;;;;;5054238;28;20190;-69
2022/01/13 10:03:13;;;;;;;7.73;3.83;;;;;;;;;;5071409;28;20286;-69
2022/01/13 10:05:47;;;;;;;5.97;3.57;;;;;;;;;;5071953;28;20470;-69
2022/01/13 10:08:14;;;;;;;5.63;2.53;;;;;;;;;;5072024;28;20709;-68
2022/01/13 10:10:41;;;;;;;8.57;3.60;;;;;;;;;;5054151;28;20447;-68
2022/01/13 10:13:10;;;;;;;9.80;3.33;;;;;;;;;;5071321;28;20182;-69
2022/01/13 10:18:39;;;;;;;8.70;4.23;;;;;;;;;;5071535;28;20240;-68
2022/01/13 10:21:07;;;;;;;6.70;3.27;;;;;;;;;;5071627;28;20200;-68
2022/01/13 10:23:34;;;;;;;9.63;2.70;;;;;;;;;;5054023;28;20481;-68
2022/01/13 10:26:10;;;;;;;7.30;3.43;;;;;;;;;;5053929;28;20556;-68
2022/01/13 10:28:37;;;;;;;7.50;3.30;;;;;;;;;;5053753;28;20971;-68
2022/01/13 10:31:04;;;;;;;5.83;2.57;;;;;;;;;;5053627;28;20218;-68
2022/01/13 10:33:30;;;;;;;8.57;3.40;;;;;;;;;;5053234;28;20197;-68
2022/01/13 10:36:07;;;;;;;11.90;3.93;;;;;;;;;;5071300;28;20232;-68
2022/01/13 10:38:53;;;;;;;8.40;3.90;;;;;;;;;;5037133;28;20523;-68
2022/01/13 10:41:29;;;;;;;9.43;3.53;;;;;;;;;;5053765;28;20475;-68
2022/01/13 10:44:12;;;;;;;7.07;3.23;;;;;;;;;;5057193;28;20773;-68
2022/01/13 10:46:59;;;;;;;7.87;3.20;;;;;;;;;;5071225;28;20174;-68
2022/01/13 10:49:32;;;;;;;8.57;3.73;;;;;;;;;;5053357;28;20489;-69
2022/01/13 10:52:31;;;;;;;6.20;3.07;;;;;;;;;;5070929;28;20516;-68
2022/01/13 10:55:02;;;;;;;10.43;3.70;;;;;;;;;;5026696;28;20850;-68
2022/01/13 10:57:29;;;;;;;6.20;2.97;;;;;;;;;;5070728;28;20683;-69
2022/01/13 10:59:56;;;;;;;6.80;3.63;;;;;;;;;;5053141;28;20214;-69
2022/01/13 11:02:22;;;;;;;9.40;3.47;;;;;;;;;;5071224;28;20182;-69
2022/01/13 11:04:49;;;;;;;9.00;4.10;;;;;;;;;;5052719;28;21405;-68
2022/01/13 11:07:17;;;;;;;8.37;3.47;;;;;;;;;;5070628;28;20432;-69
2022/01/13 11:09:53;;;;;;;8.60;3.80;;;;;;;;;;5053103;28;20186;-68
2022/01/13 11:12:31;;;;;;;9.23;4.03;;;;;;;;;;5070525;28;20196;-69
2022/01/13 11:15:03;;;;;;;11.33;3.90;;;;;;;;;;5070734;28;20522;-69
2022/01/13 11:17:30;;;;;;;11.63;3.53;;;;;;;;;;5070686;28;20535;-69
2022/01/13 11:19:57;;;;;;;9.13;4.23;;;;;;;;;;5036212;28;20213;-68
2022/01/13 11:22:24;;;;;;;8.37;4.33;;;;;;;;;;5070494;28;20185;-68
2022/01/13 11:24:51;;;;;;;9.80;4.03;;;;;;;;;;5052223;28;20193;-68
2022/01/13 11:27:19;;;;;;;8.97;4.23;;;;;;;;;;5070391;28;20437;-69
2022/01/13 11:29:46;;;;;;;10.17;3.73;;;;;;;;;;5052757;28;20913;-68
2022/01/13 11:32:14;;;;;;;10.70;4.47;;;;;;;;;;5070487;28;20190;-69
2022/01/13 11:34:41;;;;;;;12.07;4.43;;;;;;;;;;5070450;28;20193;-69
2022/01/13 11:37:08;;;;;;;12.17;3.33;;;;;;;;;;5035694;28;20730;-68
2022/01/13 11:39:36;;;;;;;8.23;4.23;;;;;;;;;;5052192;28;20648;-69
2022/01/13 11:42:09;;;;;;;11.47;4.17;;;;;;;;;;5052858;28;20581;-69
2022/01/13 11:44:36;;;;;;;10.60;4.67;;;;;;;;;;5070340;28;20194;-69
2022/01/13 11:47:08;;;;;;;12.67;5.20;;;;;;;;;;5052339;28;20273;-68
2022/01/13 11:52:26;;;;;;;12.87;4.90;;;;;;;;;;5052691;28;20232;-68
2022/01/13 11:54:53;;;;;;;14.10;5.03;;;;;;;;;;5069764;28;20285;-69
2022/01/13 11:57:39;;;;;;;7.80;4.03;;;;;;;;;;5055105;28;20523;-69
2022/01/13 12:00:06;;;;;;;8.63;4.93;;;;;;;;;;5069450;28;20279;-68
2022/01/13 12:02:39;;;;;;;15.50;5.50;;;;;;;;;;5070148;28;20186;-68
2022/01/13 12:05:06;;;;;;;11.30;5.47;;;;;;;;;;5035653;28;20441;-68
2022/01/13 12:07:36;;;;;;;10.60;4.23;;;;;;;;;;5069476;28;20718;-69
2022/01/13 12:10:06;;;;;;;13.63;6.43;;;;;;;;;;5069697;28;20210;-68
2022/01/13 12:12:33;;;;;;;11.20;4.80;;;;;;;;;;5066213;28;20742;-69
2022/01/13 12:15:17;;;;;;;13.43;5.00;;;;;;;;;;5051873;28;20753;-69
2022/01/13 12:17:52;;;;;;;15.40;6.00;;;;;;;;;;5051226;28;20653;-69
2022/01/13 12:20:24;;;;;;;13.17;5.40;;;;;;;;;;5069463;28;20765;-68
2022/01/13 12:23:01;;;;;;;11.53;4.77;;;;;;;;;;5051502;28;20186;-68
2022/01/13 12:25:32;;;;;;;14.10;4.40;;;;;;;;;;5036470;28;20557;-69
2022/01/13 12:27:59;;;;;;;8.77;3.13;;;;;;;;;;5069141;28;20218;-68
2022/01/13 12:30:26;;;;;;;11.27;4.47;;;;;;;;;;5051459;28;20217;-68
2022/01/13 12:32:58;;;;;;;13.40;4.00;;;;;;;;;;5051554;28;20260;-68
2022/01/13 12:35:29;;;;;;;12.77;5.70;;;;;;;;;;5069446;28;20188;-68
2022/01/13 12:38:00;;;;;;;10.23;4.37;;;;;;;;;;5051521;28;20332;-68
2022/01/13 12:40:28;;;;;;;8.00;4.03;;;;;;;;;;5068700;28;20891;-68
2022/01/13 12:42:55;;;;;;;12.40;5.23;;;;;;;;;;5051257;28;20178;-69
2022/01/13 12:45:29;;;;;;;13.77;5.50;;;;;;;;;;5068968;28;20190;-68
2022/01/13 12:48:07;;;;;;;11.00;4.47;;;;;;;;;;5051773;28;20213;-68
2022/01/13 12:50:44;;;;;;;15.67;7.00;;;;;;;;;;5051517;28;20714;-68
2022/01/13 12:53:12;;;;;;;12.90;4.13;;;;;;;;;;5048977;28;20293;-68
2022/01/13 12:55:40;;;;;;;11.37;5.27;;;;;;;;;;5067073;28;20322;-68
2022/01/13 12:58:07;;;;;;;12.50;4.13;;;;;;;;;;5050494;28;20240;-68
2022/01/13 13:00:55;;;;;;;10.17;4.57;;;;;;;;;;5068030;28;20206;-68
2022/01/13 13:03:22;;;;;;;14.73;4.00;;;;;;;;;;5049561;28;20741;-68
2022/01/13 13:05:50;;;;;;;5.80;3.17;;;;;;;;;;5068229;28;20190;-68
2022/01/13 13:08:18;;;;;;;6.57;2.83;;;;;;;;;;5068213;28;20182;-68
2022/01/13 13:10:47;;;;;;;11.33;5.87;;;;;;;;;;5068272;28;20210;-68
2022/01/13 13:13:14;;;;;;;9.10;3.30;;;;;;;;;;5067670;28;20193;-68
2022/01/13 13:15:48;;;;;;;16.83;10.77;;;;;;;;;;5050593;28;20186;-68
2022/01/13 13:18:21;;;;;;;7.50;3.37;;;;;;;;;;5050083;28;20590;-68
2022/01/13 13:20:48;;;;;;;8.53;3.33;;;;;;;;;;5050046;28;20313;-68
2022/01/13 13:23:17;;;;;;;13.90;5.63;;;;;;;;;;5067477;28;20235;-68
2022/01/13 13:25:45;;;;;;;11.80;4.60;;;;;;;;;;5067732;28;20190;-68
2022/01/13 13:28:25;;;;;;;9.43;3.40;;;;;;;;;;5050271;28;20432;-68
2022/01/13 13:30:53;;;;;;;23.00;10.80;;;;;;;;;;5074595;28;20310;-68
2022/01/13 13:33:41;;;;;;;9.33;3.50;;;;;;;;;;5059479;28;20190;-68
2022/01/13 13:36:09;;;;;;;13.00;5.47;;;;;;;;;;5074014;28;20209;-68
2022/01/13 13:38:48;;;;;;;7.93;4.07;;;;;;;;;;5056631;28;20185;-68
2022/01/13 13:41:17;;;;;;;19.13;7.20;;;;;;;;;;5074171;28;20741;-68
2022/01/13 13:44:04;;;;;;;18.90;7.03;;;;;;;;;;5074321;28;20274;-68
2022/01/13 13:46:38;;;;;;;17.73;7.47;;;;;;;;;;5075204;28;20196;-67
2022/01/13 13:49:05;;;;;;;21.00;10.47;;;;;;;;;;5074440;28;20213;-68
2022/01/13 13:51:32;;;;;;;23.13;5.93;;;;;;;;;;5073938;28;20649;-68
2022/01/13 13:54:29;;;;;;;9.87;5.57;;;;;;;;;;5073370;28;20788;-68
2022/01/13 13:57:01;;;;;;;8.27;3.27;;;;;;;;;;5057965;28;20210;-68
2022/01/13 13:59:28;;;;;;;12.70;4.77;;;;;;;;;;5074396;28;20240;-68
2022/01/13 14:02:05;;;;;;;7.70;3.63;;;;;;;;;;5074698;28;20653;-68
2022/01/13 14:04:42;;;;;;;8.10;4.17;;;;;;;;;;5074164;28;20185;-68
2022/01/13 14:07:19;;;;;;;15.63;4.13;;;;;;;;;;5056251;28;20986;-68
2022/01/13 14:09:51;;;;;;;8.17;2.63;;;;;;;;;;5074307;28;20428;-68
2022/01/13 14:12:24;;;;;;;14.47;4.33;;;;;;;;;;5039806;28;20190;-68
2022/01/13 14:14:51;;;;;;;4.47;2.17;;;;;;;;;;5072900;28;20190;-68
2022/01/13 14:17:28;;;;;;;10.73;4.07;;;;;;;;;;5074031;28;20193;-68
2022/01/13 14:20:03;;;;;;;14.80;4.43;;;;;;;;;;5073248;28;20198;-69
2022/01/13 14:22:31;;;;;;;13.97;5.47;;;;;;;;;;5074034;28;20750;-68
2022/01/13 14:24:59;;;;;;;14.07;3.23;;;;;;;;;;5055619;28;20209;-68
2022/01/13 14:27:27;;;;;;;9.73;4.07;;;;;;;;;;5073453;28;20240;-68
2022/01/13 14:29:55;;;;;;;11.80;4.03;;;;;;;;;;5073158;28;20184;-68
2022/01/13 14:32:23;;;;;;;11.47;4.20;;;;;;;;;;5074008;28;20190;-68
2022/01/13 14:34:51;;;;;;;12.33;5.40;;;;;;;;;;5073648;28;20661;-68
2022/01/13 14:37:18;;;;;;;14.77;5.30;;;;;;;;;;5056505;28;20540;-68
2022/01/13 14:40:04;;;;;;;16.30;5.10;;;;;;;;;;5072437;28;20230;-68
2022/01/13 14:42:35;;;;;;;20.03;5.77;;;;;;;;;;5070409;28;20209;-68
2022/01/13 14:45:22;;;;;;;13.50;3.67;;;;;;;;;;5070040;28;20179;-68
2022/01/13 14:47:49;;;;;;;16.80;6.00;;;;;;;;;;5070787;28;20186;-68
2022/01/13 14:50:16;;;;;;;17.50;5.43;;;;;;;;;;5070725;28;20189;-68
2022/01/13 14:52:47;;;;;;;12.23;4.00;;;;;;;;;;5052891;28;20186;-68
2022/01/13 14:55:14;;;;;;;11.17;3.90;;;;;;;;;;5052448;28;20220;-68
2022/01/13 14:57:46;;;;;;;11.33;3.63;;;;;;;;;;5070271;28;20210;-67
2022/01/13 15:00:13;;;;;;;11.93;4.60;;;;;;;;;;5070157;28;20292;-68
2022/01/13 15:02:47;;;;;;;11.00;3.17;;;;;;;;;;5053160;28;20653;-68
2022/01/13 15:05:16;;;;;;;14.57;4.27;;;;;;;;;;5071532;28;20277;-68
2022/01/13 15:07:42;;;;;;;12.37;3.60;;;;;;;;;;5070921;28;20762;-68
2022/01/13 15:10:10;;;;;;;8.40;3.60;;;;;;;;;;5070583;28;20924;-68
2022/01/13 15:12:37;;;;;;;10.97;4.07;;;;;;;;;;5053225;28;20678;-68
2022/01/13 15:15:04;;;;;;;14.07;4.23;;;;;;;;;;5070493;28;20189;-68
2022/01/13 15:17:31;;;;;;;13.27;4.10;;;;;;;;;;5070788;28;20182;-68
2022/01/13 15:19:58;;;;;;;13.47;3.90;;;;;;;;;;5070591;28;20210;-69
2022/01/13 15:22:25;;;;;;;16.10;5.43;;;;;;;;;;5070548;28;20704;-68
2022/01/13 15:24:53;;;;;;;13.60;5.00;;;;;;;;;;5070496;28;20271;-68
2022/01/13 15:27:19;;;;;;;19.40;5.13;;;;;;;;;;5071037;28;20652;-68
2022/01/13 15:29:46;;;;;;;16.33;4.93;;;;;;;;;;5070397;28;21010;-69
2022/01/13 15:32:13;;;;;;;15.27;4.60;;;;;;;;;;5069372;28;20580;-69
2022/01/13 15:34:39;;;;;;;4.90;2.30;;;;;;;;;;5069517;28;20193;-69
2022/01/13 15:37:06;;;;;;;14.10;4.70;;;;;;;;;;5060439;28;20210;-69
2022/01/13 15:39:33;;;;;;;12.97;3.00;;;;;;;;;;5034151;28;21185;-69
2022/01/13 15:42:00;;;;;;;10.03;3.10;;;;;;;;;;5051906;28;20210;-69
2022/01/13 15:44:26;;;;;;;13.50;3.97;;;;;;;;;;5070315;28;20189;-69
2022/01/13 15:46:53;;;;;;;14.30;3.97;;;;;;;;;;5067655;28;20549;-69
2022/01/13 15:49:20;;;;;;;9.97;2.43;;;;;;;;;;5070166;28;20182;-69
2022/01/13 15:51:47;;;;;;;11.33;4.10;;;;;;;;;;5051199;28;20178;-69
2022/01/13 15:54:14;;;;;;;9.90;2.80;;;;;;;;;;5049713;28;20551;-69